createdAt,value
2019-02-12T00:02:08.957Z,7.73
2019-02-12T00:04:37.232Z,12.87
2019-02-12T00:07:05.559Z,8.30
2019-02-12T00:09:33.886Z,12.37
2019-02-12T00:12:02.162Z,14.03
2019-02-12T00:14:30.431Z,12.80
2019-02-12T00:16:58.714Z,8.77
2019-02-12T00:19:26.977Z,14.50
2019-02-12T00:21:55.341Z,12.47
2019-02-12T00:24:23.680Z,10.93
2019-02-12T00:26:51.980Z,7.67
2019-02-12T00:29:20.306Z,13.63
2019-02-12T00:31:48.575Z,11.70
2019-02-12T00:34:16.911Z,9.97
2019-02-12T00:36:45.185Z,16.37
2019-02-12T00:39:13.481Z,13.53
2019-02-12T00:41:41.752Z,12.30
2019-02-12T00:44:10.123Z,13.97
2019-02-12T00:46:38.488Z,14.47
2019-02-12T00:49:06.807Z,12.10
2019-02-12T00:51:35.068Z,13.53
2019-02-12T00:54:03.361Z,13.07
2019-02-12T00:56:31.621Z,12.07
2019-02-12T00:58:59.907Z,15.80
2019-02-12T01:01:28.200Z,15.33
2019-02-12T01:03:56.556Z,10.77
2019-02-12T01:06:24.983Z,13.23
2019-02-12T01:08:53.270Z,11.77
2019-02-12T01:11:21.612Z,13.57
2019-02-12T01:13:49.892Z,12.67
2019-02-12T01:16:18.154Z,19.30
2019-02-12T01:18:46.418Z,11.30
2019-02-12T01:21:14.691Z,7.77
2019-02-12T01:23:42.958Z,15.80
2019-02-12T01:26:14.043Z,19.60
2019-02-12T01:28:42.307Z,14.43
2019-02-12T01:31:10.600Z,14.27
2019-02-12T01:33:38.863Z,15.97
2019-02-12T01:36:07.213Z,20.37
2019-02-12T01:38:35.472Z,13.33
2019-02-12T01:41:03.802Z,20.63
2019-02-12T01:43:32.126Z,20.30
2019-02-12T01:46:00.405Z,22.37
2019-02-12T01:48:28.657Z,17.10
2019-02-12T01:50:56.956Z,23.03
2019-02-12T01:53:25.221Z,15.00
2019-02-12T01:55:53.498Z,20.67
2019-02-12T01:58:21.827Z,16.47
2019-02-12T02:00:50.085Z,13.13
2019-02-12T02:03:18.371Z,17.70
2019-02-12T02:05:46.633Z,22.47
2019-02-12T02:08:14.902Z,20.87
2019-02-12T02:10:43.231Z,15.43
2019-02-12T02:13:11.505Z,18.80
2019-02-12T02:15:39.838Z,18.97
2019-02-12T02:18:08.141Z,12.20
2019-02-12T02:20:36.401Z,16.73
2019-02-12T02:23:04.682Z,17.37
2019-02-12T02:25:32.987Z,19.90
2019-02-12T02:28:01.315Z,23.73
2019-02-12T02:30:29.583Z,19.87
2019-02-12T02:32:57.912Z,14.30
2019-02-12T02:35:26.232Z,25.83
2019-02-12T02:37:54.511Z,24.73
2019-02-12T02:40:22.779Z,16.27
2019-02-12T02:42:51.041Z,15.93
2019-02-12T02:45:19.336Z,14.20
2019-02-12T02:47:47.637Z,16.97
2019-02-12T02:50:15.913Z,22.70
2019-02-12T02:52:44.173Z,22.13
2019-02-12T02:55:12.453Z,15.30
2019-02-12T02:57:40.713Z,14.13
2019-02-12T03:00:10.722Z,13.77
2019-02-12T03:02:38.993Z,24.37
2019-02-12T03:05:09.582Z,12.97
2019-02-12T03:07:37.852Z,20.33
2019-02-12T03:10:07.591Z,19.53
2019-02-12T03:12:35.852Z,19.30
2019-02-12T03:15:04.855Z,17.03
2019-02-12T03:17:33.180Z,17.83
2019-02-12T03:20:01.495Z,23.97
2019-02-12T03:22:29.828Z,17.83
2019-02-12T03:24:58.115Z,20.40
2019-02-12T03:27:26.376Z,27.20
2019-02-12T03:29:54.663Z,16.30
2019-02-12T03:32:23.012Z,14.63
2019-02-12T03:34:51.351Z,18.83
2019-02-12T03:37:19.651Z,16.87
2019-02-12T03:39:47.937Z,31.10
2019-02-12T03:42:16.188Z,26.33
2019-02-12T03:44:44.478Z,20.77
2019-02-12T03:47:12.742Z,16.47
2019-02-12T03:49:41.067Z,15.20
2019-02-12T03:52:13.027Z,20.03
2019-02-12T03:54:39.367Z,20.97
2019-02-12T03:57:07.663Z,14.23
2019-02-12T03:59:36.006Z,13.03
2019-02-12T04:02:04.368Z,13.87
2019-02-12T04:04:32.630Z,16.53
2019-02-12T04:07:00.937Z,17.53
2019-02-12T04:09:29.267Z,22.43
2019-02-12T04:11:57.553Z,19.30
2019-02-12T04:14:25.800Z,18.77
2019-02-12T04:16:54.082Z,20.90
2019-02-12T04:19:22.340Z,25.33
2019-02-12T04:21:50.630Z,22.77
2019-02-12T04:24:18.881Z,16.70
2019-02-12T04:26:47.157Z,28.77
2019-02-12T04:29:15.420Z,20.10
2019-02-12T04:31:43.765Z,25.57
2019-02-12T04:34:12.034Z,15.23
2019-02-12T04:36:40.402Z,24.17
2019-02-12T04:39:08.659Z,18.20
2019-02-12T04:41:36.917Z,18.23
2019-02-12T04:44:05.196Z,22.57
2019-02-12T04:46:33.526Z,22.03
2019-02-12T04:49:01.817Z,19.40
2019-02-12T04:51:30.082Z,20.47
2019-02-12T04:53:58.557Z,23.10
2019-02-12T04:56:26.804Z,16.43
2019-02-12T04:58:55.103Z,21.47
2019-02-12T05:01:23.426Z,27.90
2019-02-12T05:03:51.701Z,14.10
2019-02-12T05:06:19.951Z,16.23
2019-02-12T05:09:13.174Z,18.03
2019-02-12T05:11:44.335Z,9.33
2019-02-12T05:14:12.602Z,16.13
2019-02-12T05:16:40.860Z,18.73
2019-02-12T05:19:09.168Z,17.57
2019-02-12T05:21:37.441Z,15.70
2019-02-12T05:24:05.725Z,18.63
2019-02-12T05:26:33.963Z,15.57
2019-02-12T05:29:02.246Z,16.67
2019-02-12T05:31:30.510Z,11.33
2019-02-12T05:33:58.818Z,15.23
2019-02-12T05:36:27.073Z,14.90
2019-02-12T05:38:55.439Z,15.63
2019-02-12T05:41:23.682Z,21.70
2019-02-12T05:43:51.971Z,15.47
2019-02-12T05:46:20.220Z,9.60
2019-02-12T05:48:48.566Z,8.80
2019-02-12T05:51:16.832Z,19.03
2019-02-12T05:53:45.198Z,12.10
2019-02-12T05:56:13.464Z,14.23
2019-02-12T05:58:41.742Z,10.70
2019-02-12T06:01:10.009Z,13.53
2019-02-12T06:03:38.385Z,14.70
2019-02-12T06:06:06.683Z,14.93
2019-02-12T06:08:34.933Z,16.50
2019-02-12T06:11:03.209Z,21.93
2019-02-12T06:13:31.489Z,15.83
2019-02-12T06:15:59.761Z,17.20
2019-02-12T06:18:28.022Z,13.83
2019-02-12T06:20:56.316Z,15.27
2019-02-12T06:23:24.590Z,10.80
2019-02-12T06:25:52.842Z,14.40
2019-02-12T06:28:21.118Z,23.97
2019-02-12T06:30:49.397Z,16.37
2019-02-12T06:33:17.718Z,11.60
2019-02-12T06:35:46.000Z,16.33
2019-02-12T06:38:14.262Z,13.43
2019-02-12T06:40:42.632Z,16.33
2019-02-12T06:43:10.878Z,12.50
2019-02-12T06:45:39.167Z,12.40
2019-02-12T06:48:07.451Z,15.10
2019-02-12T06:50:35.706Z,13.87
2019-02-12T06:53:12.102Z,14.17
2019-02-12T06:55:33.985Z,10.13
2019-02-12T06:58:02.263Z,13.60
2019-02-12T07:00:30.546Z,11.47
2019-02-12T07:03:15.400Z,11.57
2019-02-12T07:06:01.632Z,13.13
2019-02-12T07:08:55.584Z,8.30
2019-02-12T07:11:36.133Z,10.33
2019-02-12T07:14:22.591Z,12.97
2019-02-12T07:17:09.082Z,11.40
2019-02-12T07:19:49.536Z,15.20
2019-02-12T07:22:27.074Z,9.83
2019-02-12T07:25:20.776Z,13.03
2019-02-12T07:28:07.013Z,22.90
2019-02-12T07:31:04.117Z,16.70
2019-02-12T07:33:56.581Z,19.43
2019-02-12T07:36:50.478Z,20.93
2019-02-12T07:39:24.585Z,19.63
2019-02-12T07:42:17.071Z,16.23
2019-02-12T07:45:07.612Z,17.77
2019-02-12T07:47:47.667Z,21.17
2019-02-12T07:50:34.039Z,18.17
2019-02-12T07:53:11.243Z,14.67
2019-02-12T07:55:57.418Z,20.83
2019-02-12T07:58:51.698Z,15.13
2019-02-12T08:01:29.205Z,13.80
2019-02-12T08:04:21.261Z,16.43
2019-02-12T08:06:55.501Z,17.03
2019-02-12T08:09:41.992Z,19.23
2019-02-12T08:12:30.103Z,22.97
2019-02-12T08:15:04.451Z,21.93
2019-02-12T08:17:47.791Z,28.77
2019-02-12T08:20:35.666Z,17.43
2019-02-12T08:23:18.813Z,20.97
2019-02-12T08:26:03.118Z,18.40
2019-02-12T08:28:52.085Z,20.33
2019-02-12T08:31:32.571Z,16.53
2019-02-12T08:34:18.797Z,21.17
2019-02-12T08:37:02.163Z,23.60
2019-02-12T08:39:56.001Z,17.73
2019-02-12T08:42:30.465Z,19.83
2019-02-12T08:45:07.853Z,19.07
2019-02-12T08:48:09.423Z,19.13
2019-02-12T08:50:49.637Z,17.60
2019-02-12T08:53:29.579Z,18.90
2019-02-12T08:56:15.827Z,17.93
2019-02-12T08:58:59.384Z,20.73
2019-02-12T09:01:47.607Z,21.77
2019-02-12T09:04:36.823Z,14.57
2019-02-12T09:07:17.140Z,18.70
2019-02-12T09:10:05.893Z,18.40
2019-02-12T09:12:59.423Z,20.40
2019-02-12T09:16:05.501Z,12.03
2019-02-12T09:18:59.668Z,14.83
2019-02-12T09:21:34.107Z,17.57
2019-02-12T09:24:23.543Z,17.97
2019-02-12T09:27:15.972Z,12.87
2019-02-12T09:29:53.170Z,18.77
2019-02-12T09:32:44.996Z,17.37
2019-02-12T09:35:19.448Z,24.13
2019-02-12T09:37:53.808Z,13.40
2019-02-12T09:40:31.070Z,14.70
2019-02-12T09:43:08.185Z,18.87
2019-02-12T09:46:06.786Z,12.13
2019-02-12T09:48:40.959Z,12.50
2019-02-12T09:51:18.251Z,13.80
2019-02-12T09:53:52.836Z,15.30
2019-02-12T09:56:30.411Z,13.47
2019-02-12T09:59:19.996Z,10.90
2019-02-12T10:02:00.250Z,8.53
2019-02-12T10:04:43.671Z,12.83
2019-02-12T10:07:18.095Z,14.30
2019-02-12T10:10:07.472Z,13.20
2019-02-12T10:12:53.631Z,13.80
2019-02-12T10:15:30.386Z,16.00
2019-02-12T10:18:04.551Z,19.73
2019-02-12T10:20:47.885Z,9.83
2019-02-12T10:23:49.437Z,13.20
2019-02-12T10:26:32.646Z,18.73
2019-02-12T10:29:12.758Z,14.27
2019-02-12T10:31:42.814Z,13.20
2019-02-12T10:34:11.345Z,9.23
2019-02-12T10:36:39.640Z,10.77
2019-02-12T10:39:09.155Z,14.87
2019-02-12T10:41:37.433Z,13.40
2019-02-12T10:44:05.794Z,15.93
2019-02-12T10:46:34.104Z,13.10
2019-02-12T10:49:02.417Z,12.53
2019-02-12T10:51:30.689Z,14.17
2019-02-12T10:53:59.009Z,11.30
2019-02-12T10:56:27.292Z,10.47
2019-02-12T10:58:55.553Z,9.67
2019-02-12T11:01:23.903Z,12.27
2019-02-12T11:03:52.166Z,11.50
2019-02-12T11:06:20.461Z,13.57
2019-02-12T11:08:48.735Z,10.83
2019-02-12T11:11:17.005Z,15.80
2019-02-12T11:13:45.283Z,16.90
2019-02-12T11:16:13.557Z,10.40
2019-02-12T11:18:41.821Z,16.47
2019-02-12T11:21:12.135Z,11.00
2019-02-12T11:23:40.131Z,14.13
2019-02-12T11:26:08.426Z,12.23
2019-02-12T11:28:36.676Z,12.10
2019-02-12T11:31:05.122Z,10.33
2019-02-12T11:33:33.453Z,12.03
2019-02-12T11:36:01.735Z,13.57
2019-02-12T11:38:30.025Z,11.37
2019-02-12T11:40:58.306Z,9.40
2019-02-12T11:43:26.563Z,12.73
2019-02-12T11:45:54.833Z,14.90
2019-02-12T11:48:23.127Z,14.77
2019-02-12T11:50:51.460Z,14.10
2019-02-12T11:53:19.785Z,21.20
2019-02-12T11:55:48.038Z,16.33
2019-02-12T11:58:16.346Z,13.63
2019-02-12T12:00:46.241Z,16.73
2019-02-12T12:03:14.526Z,18.33
2019-02-12T12:05:42.861Z,14.60
2019-02-12T12:08:11.130Z,16.67
2019-02-12T12:10:39.406Z,10.97
2019-02-12T12:13:07.691Z,15.40
2019-02-12T12:15:35.947Z,13.20
2019-02-12T12:18:04.256Z,15.47
2019-02-12T12:20:32.532Z,12.07
2019-02-12T12:23:00.787Z,13.97
2019-02-12T12:25:29.156Z,14.37
2019-02-12T12:27:57.506Z,16.10
2019-02-12T12:30:25.796Z,15.17
2019-02-12T12:32:54.073Z,13.83
2019-02-12T12:35:22.346Z,17.33
2019-02-12T12:37:50.612Z,17.97
2019-02-12T12:40:18.908Z,17.17
2019-02-12T12:42:47.173Z,34.37
2019-02-12T12:45:15.458Z,17.57
2019-02-12T12:47:43.703Z,11.60
2019-02-12T12:50:12.826Z,22.17
2019-02-12T12:52:41.095Z,17.73
2019-02-12T12:55:09.917Z,20.83
2019-02-12T12:57:42.063Z,17.00
2019-02-12T13:00:11.302Z,17.57
2019-02-12T13:02:39.583Z,15.20
2019-02-12T13:05:08.175Z,19.47
2019-02-12T13:07:36.447Z,12.97
2019-02-12T13:10:07.924Z,19.83
2019-02-12T13:12:36.645Z,13.57
2019-02-12T13:15:07.465Z,13.17
2019-02-12T13:17:35.732Z,18.87
2019-02-12T13:20:06.816Z,27.13
2019-02-12T13:22:35.073Z,14.87
2019-02-12T13:25:08.468Z,14.30
2019-02-12T13:27:33.420Z,17.43
2019-02-12T13:30:01.675Z,16.10
2019-02-12T13:32:29.970Z,20.80
2019-02-12T13:34:58.212Z,14.87
2019-02-12T13:37:26.502Z,17.73
2019-02-12T13:39:54.763Z,14.23
2019-02-12T13:42:23.065Z,15.80
2019-02-12T13:44:51.322Z,21.20
2019-02-12T13:47:19.606Z,18.43
2019-02-12T13:49:47.952Z,14.63
2019-02-12T13:52:16.256Z,15.90
2019-02-12T13:54:44.526Z,16.93
2019-02-12T13:57:12.843Z,20.33
2019-02-12T13:59:41.097Z,15.47
2019-02-12T14:02:09.467Z,16.57
2019-02-12T14:04:37.740Z,14.07
2019-02-12T14:07:06.112Z,15.77
2019-02-12T14:09:34.463Z,14.47
2019-02-12T14:12:02.781Z,16.83
2019-02-12T14:14:31.103Z,15.90
2019-02-12T14:16:59.444Z,16.50
2019-02-12T14:19:27.733Z,27.33
2019-02-12T14:21:56.040Z,17.53
2019-02-12T14:24:24.298Z,17.13
2019-02-12T14:26:52.611Z,23.50
2019-02-12T14:29:20.881Z,14.40
2019-02-12T14:31:53.085Z,18.37
2019-02-12T14:34:19.129Z,16.77
2019-02-12T14:36:47.384Z,12.33
2019-02-12T14:39:15.703Z,14.07
2019-02-12T14:41:44.062Z,15.57
2019-02-12T14:44:12.334Z,10.63
2019-02-12T14:46:40.625Z,16.23
2019-02-12T14:49:09.018Z,17.53
2019-02-12T14:51:37.346Z,15.57
2019-02-12T14:54:07.295Z,11.43
2019-02-12T14:56:35.677Z,16.93
2019-02-12T14:59:03.956Z,12.83
2019-02-12T15:01:32.218Z,18.40
2019-02-12T15:04:00.625Z,15.33
2019-02-12T15:06:28.946Z,13.90
2019-02-12T15:08:57.245Z,14.40
2019-02-12T15:11:25.501Z,16.00
2019-02-12T15:13:53.890Z,18.60
2019-02-12T15:16:22.291Z,15.03
2019-02-12T15:18:50.641Z,15.77
2019-02-12T15:21:18.946Z,20.50
2019-02-12T15:23:47.219Z,20.50
2019-02-12T15:26:15.508Z,18.73
2019-02-12T15:28:43.789Z,12.33
2019-02-12T15:31:12.060Z,18.90
2019-02-12T15:33:40.317Z,13.67
2019-02-12T15:36:08.633Z,16.80
2019-02-12T15:38:36.898Z,15.30
2019-02-12T15:41:05.178Z,19.30
2019-02-12T15:43:33.442Z,15.90
2019-02-12T15:46:01.748Z,14.67
2019-02-12T15:48:30.068Z,17.17
2019-02-12T15:50:58.362Z,16.30
2019-02-12T15:53:26.723Z,17.70
2019-02-12T15:55:55.087Z,17.80
2019-02-12T15:58:23.426Z,22.10
2019-02-12T16:00:51.792Z,11.73
2019-02-12T16:03:20.559Z,15.63
2019-02-12T16:05:49.009Z,14.40
2019-02-12T16:08:17.272Z,16.70
2019-02-12T16:10:45.552Z,20.00
2019-02-12T16:13:13.833Z,19.43
2019-02-12T16:15:43.524Z,18.50
2019-02-12T16:18:12.217Z,20.77
2019-02-12T16:20:40.541Z,13.93
2019-02-12T16:23:08.867Z,20.83
2019-02-12T16:25:37.146Z,15.10
2019-02-12T16:28:05.431Z,16.10
2019-02-12T16:30:33.711Z,14.00
2019-02-12T16:33:02.087Z,18.27
2019-02-12T16:35:30.402Z,13.37
2019-02-12T16:37:58.954Z,11.40
2019-02-12T16:40:27.216Z,21.13
2019-02-12T16:42:55.516Z,14.67
2019-02-12T16:45:44.611Z,15.53
2019-02-12T16:48:12.902Z,19.53
2019-02-12T16:50:41.189Z,12.27
2019-02-12T16:53:09.531Z,22.30
2019-02-12T16:55:37.832Z,15.30
2019-02-12T16:58:06.133Z,16.07
2019-02-12T17:00:34.378Z,13.40
2019-02-12T17:03:02.671Z,18.07
2019-02-12T17:05:30.948Z,21.17
2019-02-12T17:07:59.243Z,16.77
2019-02-12T17:10:27.527Z,16.27
2019-02-12T17:12:56.786Z,18.67
2019-02-12T17:15:25.126Z,21.27
2019-02-12T17:17:53.401Z,22.40
2019-02-12T17:20:26.297Z,22.27
2019-02-12T17:22:54.581Z,22.17
2019-02-12T17:25:22.882Z,19.57
2019-02-12T17:27:51.153Z,27.20
2019-02-12T17:30:19.438Z,28.60
2019-02-12T17:32:47.711Z,27.40
2019-02-12T17:35:16.004Z,23.37
2019-02-12T17:37:44.356Z,26.87
2019-02-12T17:40:16.736Z,28.10
2019-02-12T17:42:45.011Z,24.43
2019-02-12T17:45:17.669Z,18.60
2019-02-12T17:47:45.919Z,24.20
2019-02-12T17:50:14.832Z,24.00
2019-02-12T17:52:43.096Z,22.23
2019-02-12T17:55:11.567Z,17.57
2019-02-12T17:57:39.911Z,17.13
2019-02-12T18:00:15.026Z,20.00
2019-02-12T18:02:43.347Z,16.60
2019-02-12T18:05:11.713Z,16.10
2019-02-12T18:07:39.987Z,24.93
2019-02-12T18:10:10.127Z,23.07
2019-02-12T18:12:38.457Z,20.33
2019-02-12T18:15:09.479Z,18.13
2019-02-12T18:17:37.809Z,16.90
2019-02-12T18:20:08.728Z,13.93
2019-02-12T18:22:37.082Z,18.47
2019-02-12T18:25:07.709Z,24.23
2019-02-12T18:27:35.959Z,20.13
2019-02-12T18:30:06.833Z,19.30
2019-02-12T18:32:35.116Z,21.83
2019-02-12T18:35:03.389Z,25.60
2019-02-12T18:37:31.707Z,19.77
2019-02-12T18:39:59.970Z,20.50
2019-02-12T18:42:28.268Z,18.77
2019-02-12T18:44:56.523Z,18.17
2019-02-12T18:47:24.800Z,18.37
2019-02-12T18:49:53.059Z,20.63
2019-02-12T18:52:21.362Z,20.87
2019-02-12T18:54:49.633Z,21.53
2019-02-12T18:57:17.942Z,19.17
2019-02-12T18:59:46.212Z,17.47
2019-02-12T19:02:14.561Z,27.60
2019-02-12T19:04:42.828Z,16.90
2019-02-12T19:07:11.137Z,19.60
2019-02-12T19:09:39.464Z,18.97
2019-02-12T19:12:07.747Z,22.20
2019-02-12T19:14:36.023Z,19.63
2019-02-12T19:17:04.380Z,24.80
2019-02-12T19:19:32.643Z,26.17
2019-02-12T19:22:00.958Z,23.93
2019-02-12T19:24:29.222Z,21.80
2019-02-12T19:26:57.489Z,16.87
2019-02-12T19:29:25.782Z,25.10
2019-02-12T19:31:59.166Z,22.73
2019-02-12T19:34:24.074Z,23.00
2019-02-12T19:36:52.345Z,22.37
2019-02-12T19:39:21.602Z,27.83
2019-02-12T19:41:49.866Z,22.20
2019-02-12T19:44:18.181Z,24.67
2019-02-12T19:46:46.453Z,23.50
2019-02-12T19:49:14.837Z,29.97
2019-02-12T19:51:43.115Z,23.17
2019-02-12T19:54:11.505Z,33.20
2019-02-12T19:56:39.772Z,32.40
2019-02-12T19:59:08.053Z,23.27
2019-02-12T20:01:36.327Z,31.53
2019-02-12T20:04:04.658Z,29.57
2019-02-12T20:06:32.999Z,37.07
2019-02-12T20:09:01.282Z,27.60
2019-02-12T20:11:29.548Z,30.63
2019-02-12T20:13:57.886Z,37.27
2019-02-12T20:16:26.214Z,32.93
2019-02-12T20:18:54.657Z,38.30
2019-02-12T20:21:23.197Z,33.53
2019-02-12T20:23:52.628Z,33.93
2019-02-12T20:26:22.462Z,27.80
2019-02-12T20:28:50.833Z,26.87
2019-02-12T20:31:19.124Z,26.70
2019-02-12T20:33:47.395Z,32.77
2019-02-12T20:36:15.685Z,26.83
2019-02-12T20:38:43.964Z,25.17
2019-02-12T20:41:12.284Z,25.80
2019-02-12T20:43:40.543Z,24.43
2019-02-12T20:46:08.834Z,28.27
2019-02-12T20:48:37.122Z,36.27
2019-02-12T20:51:05.438Z,36.03
2019-02-12T20:53:33.707Z,31.63
2019-02-12T20:56:02.033Z,25.97
2019-02-12T20:58:30.364Z,25.17
2019-02-12T21:00:58.777Z,23.60
2019-02-12T21:03:27.085Z,22.13
2019-02-12T21:05:55.424Z,21.57
2019-02-12T21:08:23.735Z,23.93
2019-02-12T21:10:52.081Z,18.33
2019-02-12T21:13:20.366Z,24.23
2019-02-12T21:15:48.662Z,26.00
2019-02-12T21:18:16.928Z,22.67
2019-02-12T21:20:45.189Z,25.63
2019-02-12T21:23:13.487Z,25.50
2019-02-12T21:25:41.781Z,23.70
2019-02-12T21:28:10.097Z,23.70
2019-02-12T21:30:38.423Z,30.90
2019-02-12T21:33:06.718Z,31.40
2019-02-12T21:35:34.991Z,25.83
2019-02-12T21:38:04.229Z,31.63
2019-02-12T21:40:32.563Z,30.23
2019-02-12T21:43:00.873Z,27.87
2019-02-12T21:45:29.162Z,28.97
2019-02-12T21:47:57.535Z,31.57
2019-02-12T21:50:25.828Z,34.00
2019-02-12T21:52:54.194Z,34.13
2019-02-12T21:55:22.568Z,32.53
2019-02-12T21:57:50.938Z,27.43
2019-02-12T22:00:21.313Z,27.13
2019-02-12T22:02:49.597Z,28.87
2019-02-12T22:05:18.022Z,32.20
2019-02-12T22:07:46.371Z,29.47
2019-02-12T22:10:22.459Z,30.23
2019-02-12T22:12:50.803Z,28.80
2019-02-12T22:15:19.102Z,31.47
2019-02-12T22:17:47.363Z,28.53
2019-02-12T22:20:17.305Z,37.03
2019-02-12T22:22:45.573Z,39.97
2019-02-12T22:25:13.953Z,38.90
2019-02-12T22:27:42.276Z,38.47
2019-02-12T22:30:16.797Z,35.93
2019-02-12T22:32:45.114Z,38.17
2019-02-12T22:35:14.601Z,35.77
2019-02-12T22:37:43.138Z,38.63
2019-02-12T22:40:13.288Z,34.40
2019-02-12T22:42:41.550Z,35.23
2019-02-12T22:45:15.210Z,29.63
2019-02-12T22:47:43.473Z,28.57
2019-02-12T22:50:12.503Z,32.83
2019-02-12T22:52:40.838Z,27.50
2019-02-12T22:55:10.083Z,29.80
2019-02-12T22:57:38.344Z,26.27
2019-02-12T23:00:12.467Z,34.00
2019-02-12T23:02:40.741Z,33.33
2019-02-12T23:05:09.043Z,31.77
2019-02-12T23:07:37.296Z,31.90
2019-02-12T23:10:08.366Z,28.80
2019-02-12T23:12:36.713Z,31.90
2019-02-12T23:15:07.437Z,29.53
2019-02-12T23:17:35.807Z,21.93
2019-02-12T23:20:05.381Z,26.77
2019-02-12T23:22:33.697Z,25.43
2019-02-12T23:25:02.048Z,23.33
2019-02-12T23:27:30.411Z,22.70
2019-02-12T23:29:58.667Z,25.50
2019-02-12T23:32:26.957Z,26.47
2019-02-12T23:34:57.097Z,25.03
2019-02-12T23:37:25.324Z,22.87
2019-02-12T23:39:53.598Z,20.87
2019-02-12T23:42:21.897Z,27.33
2019-02-12T23:44:50.159Z,26.07
2019-02-12T23:47:18.471Z,24.17
2019-02-12T23:49:46.765Z,24.20
2019-02-12T23:52:15.104Z,25.77
2019-02-12T23:54:43.363Z,23.77
2019-02-12T23:57:11.667Z,30.77
2019-02-12T23:59:40.011Z,31.40
